Aquadale, North Carolina
Current Conditions -  °F | °C
As of 10:55 AM on Saturday 25 Oct 2014 (Local Time) from KVUJ Reporting Station
Clear Clear  
Wind Chill: 61°   Ceiling: Unl
Heat Index: 61°   Visibility: 10mi
Dew Point: 42°   Wind: 5mph
Humidity: 50%   Direction: 340°NNW
Pressure: 30.08"   Gusts: NA
Location:  35.2152°N, 80.1663°W
Report Text: KVUJ 251455Z AUTO 34004KT 10SM CLR 16/06 A3008 RMK AO2 T01610057
Loading
Personal Weather Stations






























Interactive Weather Map
Tropical Storm Tracking
New forecast layout! Learn more

10-Day Weather Forecast

Advertisements
Track Severe Weather on mobile